sensor_id;sensor_type;location;lat;lon;timestamp;P1;durP1;ratioP1;P2;durP2;ratioP2
10007;SDS011;5043;41.766;26.204;2023-09-30T00:00:46;15.05;;;4.65;;
10007;SDS011;5043;41.766;26.204;2023-09-30T00:03:12;23.92;;;4.80;;
10007;SDS011;5043;41.766;26.204;2023-09-30T00:05:37;8.80;;;5.63;;
10007;SDS011;5043;41.766;26.204;2023-09-30T00:08:03;8.52;;;4.93;;
10007;SDS011;5043;41.766;26.204;2023-09-30T00:10:29;11.45;;;5.10;;
10007;SDS011;5043;41.766;26.204;2023-09-30T00:12:55;12.68;;;5.07;;
10007;SDS011;5043;41.766;26.204;2023-09-30T00:15:21;17.15;;;5.22;;
10007;SDS011;5043;41.766;26.204;2023-09-30T00:17:47;11.68;;;5.78;;
10007;SDS011;5043;41.766;26.204;2023-09-30T00:20:12;10.15;;;5.63;;
10007;SDS011;5043;41.766;26.204;2023-09-30T00:22:40;11.27;;;5.25;;
10007;SDS011;5043;41.766;26.204;2023-09-30T00:25:06;16.83;;;5.38;;
10007;SDS011;5043;41.766;26.204;2023-09-30T00:27:32;11.50;;;5.75;;
10007;SDS011;5043;41.766;26.204;2023-09-30T00:29:58;16.50;;;5.32;;
10007;SDS011;5043;41.766;26.204;2023-09-30T00:32:23;9.10;;;5.60;;
10007;SDS011;5043;41.766;26.204;2023-09-30T00:34:49;19.10;;;5.80;;
10007;SDS011;5043;41.766;26.204;2023-09-30T00:37:14;13.10;;;4.82;;
10007;SDS011;5043;41.766;26.204;2023-09-30T00:39:39;10.30;;;5.32;;
10007;SDS011;5043;41.766;26.204;2023-09-30T00:42:05;17.70;;;5.43;;
10007;SDS011;5043;41.766;26.204;2023-09-30T00:44:30;9.02;;;5.25;;
10007;SDS011;5043;41.766;26.204;2023-09-30T00:46:56;20.75;;;5.70;;
10007;SDS011;5043;41.766;26.204;2023-09-30T00:49:25;16.30;;;5.10;;
10007;SDS011;5043;41.766;26.204;2023-09-30T00:51:51;10.30;;;5.32;;
10007;SDS011;5043;41.766;26.204;2023-09-30T00:54:17;10.80;;;5.55;;
10007;SDS011;5043;41.766;26.204;2023-09-30T00:56:44;11.90;;;4.88;;
10007;SDS011;5043;41.766;26.204;2023-09-30T00:59:12;15.52;;;5.18;;
10007;SDS011;5043;41.766;26.204;2023-09-30T01:01:39;7.00;;;5.25;;
10007;SDS011;5043;41.766;26.204;2023-09-30T01:04:05;12.38;;;5.03;;
10007;SDS011;5043;41.766;26.204;2023-09-30T01:06:31;13.55;;;5.40;;
10007;SDS011;5043;41.766;26.204;2023-09-30T01:08:57;15.80;;;5.50;;
10007;SDS011;5043;41.766;26.204;2023-09-30T01:11:22;14.27;;;5.20;;
10007;SDS011;5043;41.766;26.204;2023-09-30T01:13:48;16.45;;;5.72;;
10007;SDS011;5043;41.766;26.204;2023-09-30T01:16:14;10.07;;;5.18;;
10007;SDS011;5043;41.766;26.204;2023-09-30T01:18:40;10.32;;;5.10;;
10007;SDS011;5043;41.766;26.204;2023-09-30T01:21:07;17.40;;;6.07;;
10007;SDS011;5043;41.766;26.204;2023-09-30T01:23:34;8.00;;;5.28;;
10007;SDS011;5043;41.766;26.204;2023-09-30T01:26:01;10.32;;;5.13;;
10007;SDS011;5043;41.766;26.204;2023-09-30T01:28:35;10.00;;;5.65;;
10007;SDS011;5043;41.766;26.204;2023-09-30T01:31:01;11.88;;;5.15;;
10007;SDS011;5043;41.766;26.204;2023-09-30T01:33:30;9.10;;;6.13;;
10007;SDS011;5043;41.766;26.204;2023-09-30T01:35:57;11.32;;;5.15;;
10007;SDS011;5043;41.766;26.204;2023-09-30T01:38:23;13.85;;;5.40;;
10007;SDS011;5043;41.766;26.204;2023-09-30T01:40:49;9.18;;;5.78;;
10007;SDS011;5043;41.766;26.204;2023-09-30T01:43:15;13.52;;;5.47;;
10007;SDS011;5043;41.766;26.204;2023-09-30T01:45:41;10.25;;;5.35;;
10007;SDS011;5043;41.766;26.204;2023-09-30T01:48:07;11.13;;;5.18;;
10007;SDS011;5043;41.766;26.204;2023-09-30T01:50:40;13.25;;;4.95;;
10007;SDS011;5043;41.766;26.204;2023-09-30T01:53:08;12.80;;;5.68;;
10007;SDS011;5043;41.766;26.204;2023-09-30T01:55:36;14.52;;;5.43;;
10007;SDS011;5043;41.766;26.204;2023-09-30T01:58:02;16.17;;;5.75;;
10007;SDS011;5043;41.766;26.204;2023-09-30T02:00:28;12.50;;;5.93;;
10007;SDS011;5043;41.766;26.204;2023-09-30T02:02:54;12.57;;;6.00;;
10007;SDS011;5043;41.766;26.204;2023-09-30T02:05:23;10.27;;;5.50;;
10007;SDS011;5043;41.766;26.204;2023-09-30T02:07:49;16.23;;;5.82;;
10007;SDS011;5043;41.766;26.204;2023-09-30T02:10:15;11.77;;;5.88;;
10007;SDS011;5043;41.766;26.204;2023-09-30T02:12:43;11.15;;;5.70;;
10007;SDS011;5043;41.766;26.204;2023-09-30T02:15:09;12.48;;;6.07;;
10007;SDS011;5043;41.766;26.204;2023-09-30T02:17:36;16.70;;;6.15;;
10007;SDS011;5043;41.766;26.204;2023-09-30T02:20:02;15.05;;;6.38;;
10007;SDS011;5043;41.766;26.204;2023-09-30T02:22:37;9.68;;;5.88;;
10007;SDS011;5043;41.766;26.204;2023-09-30T02:25:03;17.15;;;6.47;;
10007;SDS011;5043;41.766;26.204;2023-09-30T02:27:32;16.23;;;6.28;;
10007;SDS011;5043;41.766;26.204;2023-09-30T02:29:57;12.60;;;6.60;;
10007;SDS011;5043;41.766;26.204;2023-09-30T02:32:23;12.60;;;6.03;;
10007;SDS011;5043;41.766;26.204;2023-09-30T02:34:49;13.95;;;6.13;;
10007;SDS011;5043;41.766;26.204;2023-09-30T02:37:15;13.90;;;5.97;;
10007;SDS011;5043;41.766;26.204;2023-09-30T02:39:42;16.08;;;5.63;;
10007;SDS011;5043;41.766;26.204;2023-09-30T02:42:08;12.45;;;6.70;;
10007;SDS011;5043;41.766;26.204;2023-09-30T02:44:33;11.52;;;5.90;;
10007;SDS011;5043;41.766;26.204;2023-09-30T02:46:59;11.82;;;6.05;;
10007;SDS011;5043;41.766;26.204;2023-09-30T02:49:24;11.57;;;6.22;;
10007;SDS011;5043;41.766;26.204;2023-09-30T02:51:50;17.15;;;6.15;;
10007;SDS011;5043;41.766;26.204;2023-09-30T02:54:15;12.13;;;6.20;;
10007;SDS011;5043;41.766;26.204;2023-09-30T02:56:41;17.92;;;5.88;;
10007;SDS011;5043;41.766;26.204;2023-09-30T02:59:07;11.88;;;6.20;;
10007;SDS011;5043;41.766;26.204;2023-09-30T03:01:33;14.30;;;5.50;;
10007;SDS011;5043;41.766;26.204;2023-09-30T03:03:59;22.67;;;6.55;;
10007;SDS011;5043;41.766;26.204;2023-09-30T03:06:24;10.27;;;5.57;;
10007;SDS011;5043;41.766;26.204;2023-09-30T03:08:50;13.80;;;5.60;;
10007;SDS011;5043;41.766;26.204;2023-09-30T03:11:16;10.57;;;5.97;;
10007;SDS011;5043;41.766;26.204;2023-09-30T03:13:44;10.80;;;5.30;;
10007;SDS011;5043;41.766;26.204;2023-09-30T03:16:10;9.07;;;5.72;;
10007;SDS011;5043;41.766;26.204;2023-09-30T03:18:36;14.63;;;6.30;;
10007;SDS011;5043;41.766;26.204;2023-09-30T03:21:01;16.58;;;5.90;;
10007;SDS011;5043;41.766;26.204;2023-09-30T03:23:33;14.82;;;5.80;;
10007;SDS011;5043;41.766;26.204;2023-09-30T03:25:59;12.23;;;5.78;;
10007;SDS011;5043;41.766;26.204;2023-09-30T03:28:28;14.95;;;5.60;;
10007;SDS011;5043;41.766;26.204;2023-09-30T03:30:54;13.98;;;5.65;;
10007;SDS011;5043;41.766;26.204;2023-09-30T03:33:19;16.42;;;5.65;;
10007;SDS011;5043;41.766;26.204;2023-09-30T03:35:45;14.10;;;5.72;;
10007;SDS011;5043;41.766;26.204;2023-09-30T03:38:11;18.25;;;5.93;;
10007;SDS011;5043;41.766;26.204;2023-09-30T03:40:38;9.25;;;6.07;;
10007;SDS011;5043;41.766;26.204;2023-09-30T03:43:04;10.38;;;5.63;;
10007;SDS011;5043;41.766;26.204;2023-09-30T03:45:35;15.13;;;5.45;;
10007;SDS011;5043;41.766;26.204;2023-09-30T03:48:02;8.95;;;5.22;;
10007;SDS011;5043;41.766;26.204;2023-09-30T03:50:31;12.90;;;5.88;;
10007;SDS011;5043;41.766;26.204;2023-09-30T03:53:01;14.77;;;5.80;;
10007;SDS011;5043;41.766;26.204;2023-09-30T03:55:27;19.20;;;5.97;;
10007;SDS011;5043;41.766;26.204;2023-09-30T03:57:54;9.32;;;5.55;;
10007;SDS011;5043;41.766;26.204;2023-09-30T04:00:20;15.25;;;5.45;;
10007;SDS011;5043;41.766;26.204;2023-09-30T04:02:46;10.65;;;5.95;;
10007;SDS011;5043;41.766;26.204;2023-09-30T04:05:15;10.63;;;5.85;;
10007;SDS011;5043;41.766;26.204;2023-09-30T04:07:42;10.40;;;5.45;;
10007;SDS011;5043;41.766;26.204;2023-09-30T04:10:08;12.07;;;5.85;;
10007;SDS011;5043;41.766;26.204;2023-09-30T04:12:35;15.98;;;6.22;;
10007;SDS011;5043;41.766;26.204;2023-09-30T04:15:00;10.82;;;5.78;;
10007;SDS011;5043;41.766;26.204;2023-09-30T04:17:26;18.23;;;6.63;;
10007;SDS011;5043;41.766;26.204;2023-09-30T04:19:52;13.02;;;5.75;;
10007;SDS011;5043;41.766;26.204;2023-09-30T04:22:18;9.18;;;5.40;;
10007;SDS011;5043;41.766;26.204;2023-09-30T04:24:44;15.88;;;6.22;;
10007;SDS011;5043;41.766;26.204;2023-09-30T04:27:10;13.93;;;5.72;;
10007;SDS011;5043;41.766;26.204;2023-09-30T04:29:36;18.20;;;5.50;;
10007;SDS011;5043;41.766;26.204;2023-09-30T04:32:03;9.90;;;5.97;;
10007;SDS011;5043;41.766;26.204;2023-09-30T04:34:29;9.32;;;6.03;;
10007;SDS011;5043;41.766;26.204;2023-09-30T04:36:55;11.65;;;6.20;;
10007;SDS011;5043;41.766;26.204;2023-09-30T04:39:21;17.10;;;6.43;;
10007;SDS011;5043;41.766;26.204;2023-09-30T04:41:47;14.68;;;5.93;;
10007;SDS011;5043;41.766;26.204;2023-09-30T04:44:13;8.20;;;5.57;;
10007;SDS011;5043;41.766;26.204;2023-09-30T04:46:38;23.00;;;6.60;;
10007;SDS011;5043;41.766;26.204;2023-09-30T04:49:11;14.05;;;5.85;;
10007;SDS011;5043;41.766;26.204;2023-09-30T04:51:38;12.63;;;6.00;;
10007;SDS011;5043;41.766;26.204;2023-09-30T04:54:04;11.43;;;5.82;;
10007;SDS011;5043;41.766;26.204;2023-09-30T04:56:32;20.02;;;7.03;;
10007;SDS011;5043;41.766;26.204;2023-09-30T04:58:57;11.43;;;6.05;;
10007;SDS011;5043;41.766;26.204;2023-09-30T05:01:23;21.75;;;6.57;;
10007;SDS011;5043;41.766;26.204;2023-09-30T05:03:50;14.00;;;5.78;;
10007;SDS011;5043;41.766;26.204;2023-09-30T05:06:15;9.40;;;6.43;;
10007;SDS011;5043;41.766;26.204;2023-09-30T05:08:41;16.90;;;7.28;;
10007;SDS011;5043;41.766;26.204;2023-09-30T05:11:06;14.75;;;7.22;;
10007;SDS011;5043;41.766;26.204;2023-09-30T05:13:32;14.45;;;6.40;;
10007;SDS011;5043;41.766;26.204;2023-09-30T05:15:59;19.10;;;7.53;;
10007;SDS011;5043;41.766;26.204;2023-09-30T05:18:24;11.48;;;6.47;;
10007;SDS011;5043;41.766;26.204;2023-09-30T05:20:50;15.32;;;7.57;;
10007;SDS011;5043;41.766;26.204;2023-09-30T05:23:15;13.75;;;7.20;;
10007;SDS011;5043;41.766;26.204;2023-09-30T05:25:41;12.45;;;6.93;;
10007;SDS011;5043;41.766;26.204;2023-09-30T05:28:07;13.20;;;7.25;;
10007;SDS011;5043;41.766;26.204;2023-09-30T05:30:34;12.98;;;6.45;;
10007;SDS011;5043;41.766;26.204;2023-09-30T05:33:00;13.60;;;6.90;;
10007;SDS011;5043;41.766;26.204;2023-09-30T05:35:26;12.27;;;7.05;;
10007;SDS011;5043;41.766;26.204;2023-09-30T05:37:53;10.73;;;6.25;;
10007;SDS011;5043;41.766;26.204;2023-09-30T05:40:19;18.90;;;6.03;;
10007;SDS011;5043;41.766;26.204;2023-09-30T05:42:54;16.38;;;6.20;;
10007;SDS011;5043;41.766;26.204;2023-09-30T05:45:22;8.30;;;6.00;;
10007;SDS011;5043;41.766;26.204;2023-09-30T05:47:48;17.15;;;6.13;;
10007;SDS011;5043;41.766;26.204;2023-09-30T05:50:14;12.98;;;6.47;;
10007;SDS011;5043;41.766;26.204;2023-09-30T05:52:41;13.57;;;6.10;;
10007;SDS011;5043;41.766;26.204;2023-09-30T05:55:08;11.75;;;5.68;;
10007;SDS011;5043;41.766;26.204;2023-09-30T05:57:34;8.85;;;5.60;;
10007;SDS011;5043;41.766;26.204;2023-09-30T06:00:00;15.48;;;5.97;;
10007;SDS011;5043;41.766;26.204;2023-09-30T06:02:26;13.77;;;6.60;;
10007;SDS011;5043;41.766;26.204;2023-09-30T06:04:51;17.13;;;5.90;;
10007;SDS011;5043;41.766;26.204;2023-09-30T06:07:18;12.00;;;5.75;;
10007;SDS011;5043;41.766;26.204;2023-09-30T06:09:45;13.63;;;6.22;;
10007;SDS011;5043;41.766;26.204;2023-09-30T06:12:13;16.42;;;6.03;;
10007;SDS011;5043;41.766;26.204;2023-09-30T06:14:38;13.43;;;5.82;;
10007;SDS011;5043;41.766;26.204;2023-09-30T06:17:05;17.40;;;6.05;;
10007;SDS011;5043;41.766;26.204;2023-09-30T06:19:31;12.02;;;6.10;;
10007;SDS011;5043;41.766;26.204;2023-09-30T06:21:57;15.02;;;6.25;;
10007;SDS011;5043;41.766;26.204;2023-09-30T06:24:22;12.25;;;5.60;;
10007;SDS011;5043;41.766;26.204;2023-09-30T06:26:48;17.35;;;6.07;;
10007;SDS011;5043;41.766;26.204;2023-09-30T06:29:14;11.32;;;5.70;;
10007;SDS011;5043;41.766;26.204;2023-09-30T06:31:40;13.13;;;5.75;;
10007;SDS011;5043;41.766;26.204;2023-09-30T06:34:05;13.60;;;4.97;;
10007;SDS011;5043;41.766;26.204;2023-09-30T06:36:31;13.07;;;4.95;;
10007;SDS011;5043;41.766;26.204;2023-09-30T06:38:57;19.00;;;4.68;;
10007;SDS011;5043;41.766;26.204;2023-09-30T06:41:23;13.57;;;5.47;;
10007;SDS011;5043;41.766;26.204;2023-09-30T06:43:50;15.38;;;5.18;;
10007;SDS011;5043;41.766;26.204;2023-09-30T06:46:17;13.05;;;4.55;;
10007;SDS011;5043;41.766;26.204;2023-09-30T06:48:42;13.63;;;5.30;;
10007;SDS011;5043;41.766;26.204;2023-09-30T06:51:15;13.70;;;4.85;;
10007;SDS011;5043;41.766;26.204;2023-09-30T06:53:41;18.08;;;5.82;;
10007;SDS011;5043;41.766;26.204;2023-09-30T06:56:06;17.42;;;6.40;;
10007;SDS011;5043;41.766;26.204;2023-09-30T06:58:32;16.10;;;5.80;;
10007;SDS011;5043;41.766;26.204;2023-09-30T07:00:58;12.68;;;5.15;;
10007;SDS011;5043;41.766;26.204;2023-09-30T07:03:23;8.18;;;4.93;;
10007;SDS011;5043;41.766;26.204;2023-09-30T07:05:49;13.52;;;5.43;;
10007;SDS011;5043;41.766;26.204;2023-09-30T07:08:16;10.43;;;5.03;;
10007;SDS011;5043;41.766;26.204;2023-09-30T07:10:42;18.20;;;5.25;;
10007;SDS011;5043;41.766;26.204;2023-09-30T07:13:07;13.57;;;5.20;;
10007;SDS011;5043;41.766;26.204;2023-09-30T07:15:33;15.88;;;5.90;;
10007;SDS011;5043;41.766;26.204;2023-09-30T07:17:58;12.02;;;5.70;;
10007;SDS011;5043;41.766;26.204;2023-09-30T07:20:24;9.52;;;5.57;;
10007;SDS011;5043;41.766;26.204;2023-09-30T07:22:50;14.52;;;5.53;;
10007;SDS011;5043;41.766;26.204;2023-09-30T07:25:16;11.30;;;5.13;;
10007;SDS011;5043;41.766;26.204;2023-09-30T07:27:45;19.10;;;4.95;;
10007;SDS011;5043;41.766;26.204;2023-09-30T07:30:11;12.15;;;5.22;;
10007;SDS011;5043;41.766;26.204;2023-09-30T07:32:41;14.48;;;5.85;;
10007;SDS011;5043;41.766;26.204;2023-09-30T07:35:07;13.80;;;5.28;;
10007;SDS011;5043;41.766;26.204;2023-09-30T07:37:33;14.55;;;5.82;;
10007;SDS011;5043;41.766;26.204;2023-09-30T07:39:58;12.02;;;5.18;;
10007;SDS011;5043;41.766;26.204;2023-09-30T07:42:24;10.73;;;5.63;;
10007;SDS011;5043;41.766;26.204;2023-09-30T07:44:50;15.85;;;5.25;;
10007;SDS011;5043;41.766;26.204;2023-09-30T07:47:15;6.72;;;4.97;;
10007;SDS011;5043;41.766;26.204;2023-09-30T07:49:41;9.77;;;5.05;;
10007;SDS011;5043;41.766;26.204;2023-09-30T07:52:06;13.65;;;6.13;;
10007;SDS011;5043;41.766;26.204;2023-09-30T07:54:32;19.95;;;5.20;;
10007;SDS011;5043;41.766;26.204;2023-09-30T07:56:57;21.95;;;5.50;;
10007;SDS011;5043;41.766;26.204;2023-09-30T07:59:24;8.63;;;4.78;;
10007;SDS011;5043;41.766;26.204;2023-09-30T08:01:50;15.82;;;5.28;;
10007;SDS011;5043;41.766;26.204;2023-09-30T08:04:17;10.68;;;5.68;;
10007;SDS011;5043;41.766;26.204;2023-09-30T08:06:42;14.32;;;5.57;;
10007;SDS011;5043;41.766;26.204;2023-09-30T08:09:08;9.65;;;5.50;;
10007;SDS011;5043;41.766;26.204;2023-09-30T08:11:36;14.15;;;5.30;;
10007;SDS011;5043;41.766;26.204;2023-09-30T08:14:05;14.40;;;5.20;;
10007;SDS011;5043;41.766;26.204;2023-09-30T08:16:35;17.52;;;5.93;;
10007;SDS011;5043;41.766;26.204;2023-09-30T08:19:02;17.02;;;5.63;;
10007;SDS011;5043;41.766;26.204;2023-09-30T08:21:28;13.68;;;5.53;;
10007;SDS011;5043;41.766;26.204;2023-09-30T08:23:55;11.32;;;4.70;;
10007;SDS011;5043;41.766;26.204;2023-09-30T08:26:20;9.43;;;5.20;;
10007;SDS011;5043;41.766;26.204;2023-09-30T08:28:46;8.93;;;4.72;;
10007;SDS011;5043;41.766;26.204;2023-09-30T08:31:11;11.30;;;5.95;;
10007;SDS011;5043;41.766;26.204;2023-09-30T08:33:37;17.63;;;5.50;;
10007;SDS011;5043;41.766;26.204;2023-09-30T08:36:05;13.90;;;5.68;;
10007;SDS011;5043;41.766;26.204;2023-09-30T08:38:35;12.77;;;5.03;;
10007;SDS011;5043;41.766;26.204;2023-09-30T08:41:04;10.63;;;5.50;;
10007;SDS011;5043;41.766;26.204;2023-09-30T08:43:30;18.95;;;5.65;;
10007;SDS011;5043;41.766;26.204;2023-09-30T08:45:59;10.60;;;4.60;;
10007;SDS011;5043;41.766;26.204;2023-09-30T08:49:20;12.95;;;5.60;;
10007;SDS011;5043;41.766;26.204;2023-09-30T08:51:48;7.97;;;4.63;;
10007;SDS011;5043;41.766;26.204;2023-09-30T08:54:14;9.85;;;5.13;;
10007;SDS011;5043;41.766;26.204;2023-09-30T08:56:39;14.55;;;4.82;;
10007;SDS011;5043;41.766;26.204;2023-09-30T08:59:11;8.45;;;5.00;;
10007;SDS011;5043;41.766;26.204;2023-09-30T09:01:36;17.27;;;5.13;;
10007;SDS011;5043;41.766;26.204;2023-09-30T09:04:04;13.57;;;4.63;;
10007;SDS011;5043;41.766;26.204;2023-09-30T09:06:32;5.78;;;4.80;;
10007;SDS011;5043;41.766;26.204;2023-09-30T09:09:18;5.90;;;3.85;;
10007;SDS011;5043;41.766;26.204;2023-09-30T09:11:44;5.72;;;3.80;;
10007;SDS011;5043;41.766;26.204;2023-09-30T09:14:10;11.50;;;4.75;;
10007;SDS011;5043;41.766;26.204;2023-09-30T09:16:36;10.05;;;5.43;;
10007;SDS011;5043;41.766;26.204;2023-09-30T09:19:14;29.63;;;5.93;;
10007;SDS011;5043;41.766;26.204;2023-09-30T09:21:55;13.60;;;4.45;;
10007;SDS011;5043;41.766;26.204;2023-09-30T09:24:33;6.30;;;4.13;;
10007;SDS011;5043;41.766;26.204;2023-09-30T09:27:07;12.43;;;4.72;;
10007;SDS011;5043;41.766;26.204;2023-09-30T09:29:34;14.65;;;5.07;;
10007;SDS011;5043;41.766;26.204;2023-09-30T09:32:16;17.05;;;5.13;;
10007;SDS011;5043;41.766;26.204;2023-09-30T09:34:43;10.52;;;3.92;;
10007;SDS011;5043;41.766;26.204;2023-09-30T09:37:14;11.60;;;3.80;;
10007;SDS011;5043;41.766;26.204;2023-09-30T09:39:48;14.60;;;4.20;;
10007;SDS011;5043;41.766;26.204;2023-09-30T09:42:29;13.85;;;3.78;;
10007;SDS011;5043;41.766;26.204;2023-09-30T09:45:03;24.08;;;4.88;;
10007;SDS011;5043;41.766;26.204;2023-09-30T09:47:31;9.38;;;3.70;;
10007;SDS011;5043;41.766;26.204;2023-09-30T09:49:57;6.13;;;3.45;;
10007;SDS011;5043;41.766;26.204;2023-09-30T09:52:24;8.13;;;2.80;;
10007;SDS011;5043;41.766;26.204;2023-09-30T09:54:50;9.63;;;3.22;;
10007;SDS011;5043;41.766;26.204;2023-09-30T09:57:16;13.05;;;3.55;;
10007;SDS011;5043;41.766;26.204;2023-09-30T09:59:43;25.38;;;4.93;;
10007;SDS011;5043;41.766;26.204;2023-09-30T10:02:14;13.40;;;4.28;;
10007;SDS011;5043;41.766;26.204;2023-09-30T10:04:43;11.88;;;3.78;;
10007;SDS011;5043;41.766;26.204;2023-09-30T10:07:12;12.98;;;4.65;;
10007;SDS011;5043;41.766;26.204;2023-09-30T10:09:46;5.38;;;4.20;;
10007;SDS011;5043;41.766;26.204;2023-09-30T10:12:15;8.35;;;3.88;;
10007;SDS011;5043;41.766;26.204;2023-09-30T10:14:42;9.63;;;3.25;;
10007;SDS011;5043;41.766;26.204;2023-09-30T10:17:07;5.65;;;3.90;;
10007;SDS011;5043;41.766;26.204;2023-09-30T10:19:33;12.98;;;4.15;;
10007;SDS011;5043;41.766;26.204;2023-09-30T10:24:45;9.60;;;4.80;;
10007;SDS011;5043;41.766;26.204;2023-09-30T10:29:59;7.85;;;3.38;;
10007;SDS011;5043;41.766;26.204;2023-09-30T10:40:47;6.38;;;3.20;;
10007;SDS011;5043;41.766;26.204;2023-09-30T10:43:31;6.53;;;3.55;;
10007;SDS011;5043;41.766;26.204;2023-09-30T10:45:58;7.93;;;3.60;;
10007;SDS011;5043;41.766;26.204;2023-09-30T10:50:50;14.13;;;4.20;;
10007;SDS011;5043;41.766;26.204;2023-09-30T10:53:17;6.38;;;4.30;;
10007;SDS011;5043;41.766;26.204;2023-09-30T10:55:46;8.43;;;4.30;;
10007;SDS011;5043;41.766;26.204;2023-09-30T10:58:14;13.85;;;4.95;;
10007;SDS011;5043;41.766;26.204;2023-09-30T11:00:51;16.48;;;5.43;;
10007;SDS011;5043;41.766;26.204;2023-09-30T11:03:23;9.07;;;4.47;;
10007;SDS011;5043;41.766;26.204;2023-09-30T11:05:48;13.48;;;4.63;;
10007;SDS011;5043;41.766;26.204;2023-09-30T11:08:15;12.40;;;4.40;;
10007;SDS011;5043;41.766;26.204;2023-09-30T11:10:51;6.32;;;4.18;;
10007;SDS011;5043;41.766;26.204;2023-09-30T11:13:18;7.13;;;3.95;;
10007;SDS011;5043;41.766;26.204;2023-09-30T11:15:45;10.43;;;4.25;;
10007;SDS011;5043;41.766;26.204;2023-09-30T11:18:14;10.60;;;4.25;;
10007;SDS011;5043;41.766;26.204;2023-09-30T11:20:41;10.50;;;4.78;;
10007;SDS011;5043;41.766;26.204;2023-09-30T11:23:07;14.40;;;4.45;;
10007;SDS011;5043;41.766;26.204;2023-09-30T11:25:37;9.48;;;4.55;;
10007;SDS011;5043;41.766;26.204;2023-09-30T11:28:14;11.80;;;4.03;;
10007;SDS011;5043;41.766;26.204;2023-09-30T11:30:57;8.23;;;3.90;;
10007;SDS011;5043;41.766;26.204;2023-09-30T11:33:24;5.45;;;3.75;;
10007;SDS011;5043;41.766;26.204;2023-09-30T11:38:30;17.17;;;4.93;;
10007;SDS011;5043;41.766;26.204;2023-09-30T11:41:06;5.10;;;3.72;;
10007;SDS011;5043;41.766;26.204;2023-09-30T11:43:34;4.40;;;3.63;;
10007;SDS011;5043;41.766;26.204;2023-09-30T11:46:03;7.70;;;4.50;;
10007;SDS011;5043;41.766;26.204;2023-09-30T11:48:30;9.23;;;3.58;;
10007;SDS011;5043;41.766;26.204;2023-09-30T11:50:56;11.15;;;3.65;;
10007;SDS011;5043;41.766;26.204;2023-09-30T11:53:27;7.43;;;4.05;;
10007;SDS011;5043;41.766;26.204;2023-09-30T11:55:55;11.25;;;3.72;;
10007;SDS011;5043;41.766;26.204;2023-09-30T11:58:27;8.15;;;4.00;;
10007;SDS011;5043;41.766;26.204;2023-09-30T12:00:53;9.25;;;4.57;;
10007;SDS011;5043;41.766;26.204;2023-09-30T12:03:23;14.70;;;3.80;;
10007;SDS011;5043;41.766;26.204;2023-09-30T12:05:49;8.27;;;4.47;;
10007;SDS011;5043;41.766;26.204;2023-09-30T12:08:14;4.30;;;3.90;;
10007;SDS011;5043;41.766;26.204;2023-09-30T12:10:40;13.13;;;4.50;;
10007;SDS011;5043;41.766;26.204;2023-09-30T12:13:05;7.50;;;4.43;;
10007;SDS011;5043;41.766;26.204;2023-09-30T12:15:31;6.15;;;4.70;;
10007;SDS011;5043;41.766;26.204;2023-09-30T12:17:56;9.82;;;4.30;;
10007;SDS011;5043;41.766;26.204;2023-09-30T12:20:22;9.82;;;4.80;;
10007;SDS011;5043;41.766;26.204;2023-09-30T12:22:48;8.95;;;4.68;;
10007;SDS011;5043;41.766;26.204;2023-09-30T12:25:14;9.13;;;4.20;;
10007;SDS011;5043;41.766;26.204;2023-09-30T12:27:39;8.52;;;4.35;;
10007;SDS011;5043;41.766;26.204;2023-09-30T12:30:05;13.63;;;5.30;;
10007;SDS011;5043;41.766;26.204;2023-09-30T12:32:32;13.75;;;4.70;;
10007;SDS011;5043;41.766;26.204;2023-09-30T12:34:57;9.93;;;4.70;;
10007;SDS011;5043;41.766;26.204;2023-09-30T12:37:23;6.30;;;5.03;;
10007;SDS011;5043;41.766;26.204;2023-09-30T12:39:48;5.30;;;4.70;;
10007;SDS011;5043;41.766;26.204;2023-09-30T12:42:14;11.50;;;5.18;;
10007;SDS011;5043;41.766;26.204;2023-09-30T12:44:40;15.20;;;5.43;;
10007;SDS011;5043;41.766;26.204;2023-09-30T12:47:06;11.55;;;4.97;;
10007;SDS011;5043;41.766;26.204;2023-09-30T12:49:31;13.50;;;4.97;;
10007;SDS011;5043;41.766;26.204;2023-09-30T12:51:57;9.73;;;5.07;;
10007;SDS011;5043;41.766;26.204;2023-09-30T12:54:26;11.30;;;4.90;;
10007;SDS011;5043;41.766;26.204;2023-09-30T12:56:52;5.65;;;4.00;;
10007;SDS011;5043;41.766;26.204;2023-09-30T12:59:17;8.80;;;4.78;;
10007;SDS011;5043;41.766;26.204;2023-09-30T13:01:43;8.43;;;5.03;;
10007;SDS011;5043;41.766;26.204;2023-09-30T13:04:09;5.95;;;4.65;;
10007;SDS011;5043;41.766;26.204;2023-09-30T13:06:35;7.82;;;4.93;;
10007;SDS011;5043;41.766;26.204;2023-09-30T13:09:01;12.95;;;5.15;;
10007;SDS011;5043;41.766;26.204;2023-09-30T13:11:29;13.07;;;7.28;;
10007;SDS011;5043;41.766;26.204;2023-09-30T13:13:55;18.42;;;9.95;;
10007;SDS011;5043;41.766;26.204;2023-09-30T13:16:20;11.60;;;4.78;;
10007;SDS011;5043;41.766;26.204;2023-09-30T13:18:47;5.70;;;4.65;;
10007;SDS011;5043;41.766;26.204;2023-09-30T13:21:13;11.98;;;6.32;;
10007;SDS011;5043;41.766;26.204;2023-09-30T13:23:38;9.20;;;4.35;;
10007;SDS011;5043;41.766;26.204;2023-09-30T13:26:04;6.43;;;4.63;;
10007;SDS011;5043;41.766;26.204;2023-09-30T13:28:29;10.32;;;4.75;;
10007;SDS011;5043;41.766;26.204;2023-09-30T13:30:55;7.32;;;4.18;;
10007;SDS011;5043;41.766;26.204;2023-09-30T13:33:20;11.30;;;4.20;;
10007;SDS011;5043;41.766;26.204;2023-09-30T13:35:46;10.80;;;3.90;;
10007;SDS011;5043;41.766;26.204;2023-09-30T13:38:12;7.88;;;4.43;;
10007;SDS011;5043;41.766;26.204;2023-09-30T13:40:37;11.77;;;4.43;;
10007;SDS011;5043;41.766;26.204;2023-09-30T13:43:06;8.02;;;4.45;;
10007;SDS011;5043;41.766;26.204;2023-09-30T13:45:31;9.93;;;4.40;;
10007;SDS011;5043;41.766;26.204;2023-09-30T13:47:57;9.55;;;5.07;;
10007;SDS011;5043;41.766;26.204;2023-09-30T13:50:22;8.07;;;5.05;;
10007;SDS011;5043;41.766;26.204;2023-09-30T13:52:48;9.13;;;4.53;;
10007;SDS011;5043;41.766;26.204;2023-09-30T13:55:13;8.25;;;3.92;;
10007;SDS011;5043;41.766;26.204;2023-09-30T13:57:44;6.63;;;4.60;;
10007;SDS011;5043;41.766;26.204;2023-09-30T14:00:11;11.15;;;4.00;;
10007;SDS011;5043;41.766;26.204;2023-09-30T14:02:37;5.97;;;4.10;;
10007;SDS011;5043;41.766;26.204;2023-09-30T14:05:03;7.93;;;3.78;;
10007;SDS011;5043;41.766;26.204;2023-09-30T14:07:29;12.15;;;5.35;;
10007;SDS011;5043;41.766;26.204;2023-09-30T14:09:55;14.27;;;5.20;;
10007;SDS011;5043;41.766;26.204;2023-09-30T14:12:20;11.20;;;4.40;;
10007;SDS011;5043;41.766;26.204;2023-09-30T14:14:46;6.40;;;4.15;;
10007;SDS011;5043;41.766;26.204;2023-09-30T14:17:12;6.38;;;4.38;;
10007;SDS011;5043;41.766;26.204;2023-09-30T14:19:39;8.35;;;4.78;;
10007;SDS011;5043;41.766;26.204;2023-09-30T14:22:05;5.95;;;4.13;;
10007;SDS011;5043;41.766;26.204;2023-09-30T14:24:33;9.68;;;4.53;;
10007;SDS011;5043;41.766;26.204;2023-09-30T14:26:58;8.95;;;4.75;;
10007;SDS011;5043;41.766;26.204;2023-09-30T14:29:24;8.65;;;4.57;;
10007;SDS011;5043;41.766;26.204;2023-09-30T14:31:50;16.60;;;4.78;;
10007;SDS011;5043;41.766;26.204;2023-09-30T14:34:16;14.07;;;5.75;;
10007;SDS011;5043;41.766;26.204;2023-09-30T14:36:42;10.55;;;5.53;;
10007;SDS011;5043;41.766;26.204;2023-09-30T14:39:08;12.35;;;5.03;;
10007;SDS011;5043;41.766;26.204;2023-09-30T14:41:34;10.52;;;5.60;;
10007;SDS011;5043;41.766;26.204;2023-09-30T14:44:00;5.53;;;4.70;;
10007;SDS011;5043;41.766;26.204;2023-09-30T14:46:25;11.32;;;5.60;;
10007;SDS011;5043;41.766;26.204;2023-09-30T14:48:52;10.52;;;5.10;;
10007;SDS011;5043;41.766;26.204;2023-09-30T14:51:18;9.10;;;5.00;;
10007;SDS011;5043;41.766;26.204;2023-09-30T14:53:46;6.97;;;4.80;;
10007;SDS011;5043;41.766;26.204;2023-09-30T14:56:15;6.10;;;4.47;;